Time;durP1;ratioP1;P1;durP2;ratioP2;P2;SDS_P1;SDS_P2;PMS_P1;PMS_P2;Temp;Humidity;BMP_temperature;BMP_pressure;BME280_temperature;BME280_humidity;BME280_pressure;Samples;Min_cycle;Max_cycle;Signal;HPM_P1;HPM_P2
2023/05/08 00:00:20;;;;;;;;;14.33;12.00;;;;;16.71;100.00;101885.91;5055065;28;45485;-75
2023/05/08 00:02:46;;;;;;;;;11.67;11.67;;;;;16.71;100.00;101882.34;5036978;28;45547;-74
2023/05/08 00:05:11;;;;;;;;;15.33;11.67;;;;;16.70;100.00;101891.22;5053554;28;63218;-74
2023/05/08 00:07:37;;;;;;;;;12.67;12.00;;;;;16.67;100.00;101888.53;5050805;28;65664;-74
2023/05/08 00:10:07;;;;;;;;;13.00;10.00;;;;;16.64;100.00;101897.41;5054221;28;45468;-75
2023/05/08 00:12:32;;;;;;;;;12.67;12.67;;;;;16.63;100.00;101887.66;5033830;28;45360;-74
2023/05/08 00:14:58;;;;;;;;;14.33;12.67;;;;;16.63;100.00;101895.66;5044251;28;45447;-74
2023/05/08 00:17:24;;;;;;;;;13.00;11.33;;;;;16.59;100.00;101898.28;5032807;28;45748;-75
2023/05/08 00:19:49;;;;;;;;;12.00;10.67;;;;;16.58;100.00;101900.06;5053960;28;45368;-74
2023/05/08 00:22:15;;;;;;;;;15.33;12.00;;;;;16.56;100.00;101893.81;5050742;28;62892;-74
2023/05/08 00:24:40;;;;;;;;;15.67;13.00;;;;;16.57;100.00;101895.63;5053954;28;64265;-74
2023/05/08 00:27:07;;;;;;;;;15.33;14.00;;;;;16.56;100.00;101895.59;5047922;28;68817;-74
2023/05/08 00:29:32;;;;;;;;;17.67;13.00;;;;;16.55;100.00;101888.50;5052171;28;45383;-74
2023/05/08 00:31:58;;;;;;;;;16.00;15.67;;;;;16.51;100.00;101876.91;5051181;28;45528;-74
2023/05/08 00:34:23;;;;;;;;;14.67;13.33;;;;;16.50;100.00;101878.69;5047470;28;45801;-74
2023/05/08 00:36:48;;;;;;;;;15.00;13.33;;;;;16.48;100.00;101876.94;5046432;28;45498;-74
2023/05/08 00:39:14;;;;;;;;;13.33;11.00;;;;;16.44;100.00;101886.69;5052405;28;61006;-74
2023/05/08 00:41:39;;;;;;;;;11.00;11.00;;;;;16.43;100.00;101881.34;5052590;28;45556;-73
2023/05/08 00:44:05;;;;;;;;;19.00;14.33;;;;;16.40;100.00;101873.31;5056976;28;68205;-74
2023/05/08 00:46:30;;;;;;;;;11.00;9.00;;;;;16.41;100.00;101878.69;5052933;28;65396;-74
2023/05/08 00:48:56;;;;;;;;;14.67;11.67;;;;;16.41;100.00;101880.47;5049038;28;45779;-74
2023/05/08 00:51:21;;;;;;;;;15.00;12.00;;;;;16.39;100.00;101883.09;5068697;28;45572;-73
2023/05/08 00:53:47;;;;;;;;;15.33;13.33;;;;;16.35;100.00;101873.34;5033397;28;47781;-73
2023/05/08 00:56:14;;;;;;;;;12.33;11.00;;;;;16.36;100.00;101880.44;5056104;28;45174;-74
2023/05/08 00:58:40;;;;;;;;;12.33;10.33;;;;;16.34;100.00;101873.31;5056892;28;45322;-73
2023/05/08 01:01:06;;;;;;;;;13.00;12.00;;;;;16.31;100.00;101874.19;5056444;28;62262;-74
2023/05/08 01:03:35;;;;;;;;;13.00;13.00;;;;;16.29;100.00;101875.06;5049541;28;47136;-74
2023/05/08 01:06:02;;;;;;;;;14.00;12.00;;;;;16.26;100.00;101875.06;5056826;28;45278;-73
2023/05/08 01:08:27;;;;;;;;;15.00;13.00;;;;;16.22;100.00;101874.16;5073323;28;45474;-74
2023/05/08 01:11:12;;;;;;;;;12.67;11.67;;;;;16.19;100.00;101875.03;5057039;28;61418;-74
2023/05/08 01:14:16;;;;;;;;;12.67;12.67;;;;;16.15;100.00;101877.69;5053354;28;48278;-74
2023/05/08 01:16:57;;;;;;;;;18.00;11.67;;;;;16.12;100.00;101881.22;5040658;28;45656;-75
2023/05/08 01:19:54;;;;;;;;;14.00;12.00;;;;;16.11;100.00;101884.75;5064411;28;45490;-74
2023/05/08 01:22:53;;;;;;;;;12.33;11.33;;;;;16.09;100.00;101888.31;5067647;28;45137;-74
2023/05/08 01:25:18;;;;;;;;;16.67;12.67;;;;;16.07;100.00;101888.28;5055665;28;46523;-74
2023/05/08 01:27:49;;;;;;;;;11.67;9.67;;;;;16.06;100.00;101897.16;5057321;28;45560;-75
2023/05/08 01:30:15;;;;;;;;;23.00;18.33;;;;;16.05;100.00;101887.41;5048699;28;45301;-73
2023/05/08 01:32:42;;;;;;;;;20.00;15.67;;;;;16.04;100.00;101877.63;5056047;28;45449;-74
2023/05/08 01:35:28;;;;;;;;;16.33;14.00;;;;;16.02;100.00;101876.72;5056160;28;46789;-74
2023/05/08 01:38:14;;;;;;;;;13.00;13.00;;;;;16.02;100.00;101883.81;5055660;28;45395;-74
2023/05/08 01:40:44;;;;;;;;;19.00;17.00;;;;;15.98;100.00;101883.81;5038807;28;45618;-75
2023/05/08 01:43:47;;;;;;;;;18.00;13.33;;;;;16.01;100.00;101884.72;5057608;28;45498;-73
2023/05/08 01:46:17;;;;;;;;;20.00;14.33;;;;;16.02;100.00;101875.81;5056290;28;46076;-74
2023/05/08 01:48:52;;;;;;;;;21.00;13.00;;;;;16.04;100.00;101882.97;5051514;28;45424;-74
2023/05/08 01:51:21;;;;;;;;;15.00;14.00;;;;;16.07;100.00;101893.63;5053097;28;45445;-74
2023/05/08 01:53:51;;;;;;;;;16.00;13.00;;;;;16.11;100.00;101892.75;5048110;28;45435;-74
2023/05/08 01:56:21;;;;;;;;;14.33;13.33;;;;;16.10;100.00;101890.09;5054200;28;45801;-74
2023/05/08 01:58:48;;;;;;;;;15.33;12.00;;;;;16.12;100.00;101893.63;5052743;28;45408;-74
2023/05/08 02:01:14;;;;;;;;;13.00;13.00;;;;;16.11;100.00;101889.19;5056762;28;45322;-74
2023/05/08 02:03:40;;;;;;;;;14.00;12.67;;;;;16.09;100.00;101888.31;5054510;28;45253;-74
2023/05/08 02:06:07;;;;;;;;;14.67;14.33;;;;;16.12;100.00;101897.19;5055330;28;45819;-74
2023/05/08 02:08:34;;;;;;;;;15.00;13.33;;;;;16.11;100.00;101898.09;5051910;28;45595;-73
2023/05/08 02:11:00;;;;;;;;;15.33;14.00;;;;;16.09;100.00;101889.22;5051577;28;45450;-74
2023/05/08 02:13:26;;;;;;;;;14.67;12.67;;;;;16.10;100.00;101898.97;5055837;28;45613;-74
2023/05/08 02:15:53;;;;;;;;;20.33;17.67;;;;;16.09;100.00;101897.19;5055603;28;46826;-73
2023/05/08 02:18:20;;;;;;;;;19.67;17.00;;;;;16.07;100.00;101903.38;5055707;28;45651;-73
2023/05/08 02:20:47;;;;;;;;;17.00;13.33;;;;;16.09;100.00;101902.53;5055420;28;45557;-75
2023/05/08 02:23:14;;;;;;;;;19.33;15.67;;;;;16.07;100.00;101898.06;5051785;28;45660;-75
2023/05/08 02:25:40;;;;;;;;;16.33;14.00;;;;;16.08;100.00;101900.72;5055075;28;45970;-75
2023/05/08 02:28:06;;;;;;;;;18.33;17.00;;;;;16.07;100.00;101898.94;5055529;28;45722;-74
2023/05/08 02:30:32;;;;;;;;;16.67;14.33;;;;;16.09;100.00;101907.84;5052578;28;45611;-74
2023/05/08 02:32:58;;;;;;;;;14.00;13.33;;;;;16.09;100.00;101912.28;5054826;28;60993;-74
2023/05/08 02:35:24;;;;;;;;;14.33;12.67;;;;;16.04;100.00;101903.38;5055274;28;46103;-74
2023/05/08 02:37:52;;;;;;;;;14.00;14.00;;;;;16.00;100.00;101902.47;5068039;28;45529;-74
2023/05/08 02:40:19;;;;;;;;;13.67;11.33;;;;;15.98;100.00;101905.13;5052557;28;45253;-74
2023/05/08 02:42:45;;;;;;;;;16.67;15.33;;;;;15.97;100.00;101910.44;5055413;28;45344;-74
2023/05/08 02:45:11;;;;;;;;;12.00;10.00;;;;;15.96;100.00;101909.53;5055550;28;45726;-75
2023/05/08 02:47:42;;;;;;;;;13.00;13.00;;;;;15.93;100.00;101906.00;5053136;28;49374;-74
2023/05/08 02:50:31;;;;;;;;;11.00;11.00;;;;;15.89;100.00;101906.84;5056773;28;45301;-74
2023/05/08 02:53:03;;;;;;;;;15.33;13.33;;;;;15.88;100.00;101900.63;5054798;28;45304;-74
2023/05/08 02:55:38;;;;;;;;;17.00;14.67;;;;;15.87;100.00;101895.25;5068407;28;45939;-74
2023/05/08 02:58:28;;;;;;;;;16.67;13.33;;;;;15.90;100.00;101898.84;5055242;28;45628;-74
2023/05/08 03:01:05;;;;;;;;;16.00;15.67;;;;;15.90;100.00;101900.63;5055094;28;45441;-74
2023/05/08 03:03:42;;;;;;;;;18.33;16.67;;;;;15.90;100.00;101893.53;5055229;28;45577;-75
2023/05/08 03:06:12;;;;;;;;;19.00;15.67;;;;;15.88;100.00;101897.97;5052720;28;46364;-74
2023/05/08 03:08:39;;;;;;;;;14.33;11.00;;;;;15.90;100.00;101898.84;5049157;28;45498;-73
2023/05/08 03:11:11;;;;;;;;;12.33;11.67;;;;;15.86;100.00;101886.38;5048942;28;45379;-73
2023/05/08 03:13:38;;;;;;;;;14.00;12.33;;;;;15.85;100.00;101892.59;5071589;28;45466;-74
2023/05/08 03:16:05;;;;;;;;;12.67;12.67;;;;;15.83;100.00;101890.81;5044255;28;48769;-73
2023/05/08 03:18:35;;;;;;;;;15.67;12.00;;;;;15.82;100.00;101883.69;5054021;28;45513;-74
2023/05/08 03:21:00;;;;;;;;;12.33;11.33;;;;;15.82;100.00;101881.03;5052698;28;45463;-74
2023/05/08 03:23:28;;;;;;;;;14.00;14.00;;;;;15.77;100.00;101881.03;5055136;28;45593;-74
2023/05/08 03:25:54;;;;;;;;;15.67;14.00;;;;;15.76;100.00;101883.66;5069351;28;45819;-74
2023/05/08 03:28:20;;;;;;;;;18.67;13.33;;;;;15.74;100.00;101883.66;5053892;28;45377;-74
2023/05/08 03:30:47;;;;;;;;;13.67;11.67;;;;;15.76;100.00;101889.88;5053464;28;46193;-74
2023/05/08 03:33:12;;;;;;;;;15.00;11.33;;;;;15.75;100.00;101882.78;5054618;28;45423;-75
2023/05/08 03:35:38;;;;;;;;;15.33;13.33;;;;;15.74;100.00;101902.28;5054515;28;62962;-75
2023/05/08 03:38:05;;;;;;;;;18.33;15.67;;;;;15.73;100.00;101896.97;5054738;28;45459;-74
2023/05/08 03:40:35;;;;;;;;;16.67;13.33;;;;;15.71;100.00;101883.63;5047707;28;45399;-74
2023/05/08 03:43:01;;;;;;;;;15.67;15.67;;;;;15.71;100.00;101889.88;5055206;28;45645;-74
2023/05/08 03:45:27;;;;;;;;;17.33;13.67;;;;;15.74;100.00;101896.09;5054172;28;46607;-75
2023/05/08 03:47:52;;;;;;;;;18.00;12.33;;;;;15.74;100.00;101899.63;5046254;28;55638;-75
2023/05/08 03:50:18;;;;;;;;;14.33;10.00;;;;;15.75;100.00;101888.09;5046397;28;45209;-74
2023/05/08 03:52:43;;;;;;;;;18.67;15.33;;;;;15.79;100.00;101889.03;5055726;28;45501;-74
2023/05/08 03:55:09;;;;;;;;;13.33;11.00;;;;;15.79;100.00;101889.03;5053481;28;63164;-73
2023/05/08 03:57:44;;;;;;;;;13.67;11.33;;;;;15.77;100.00;101886.34;5053219;28;45569;-74
2023/05/08 04:00:19;;;;;;;;;7.33;7.00;;;;;15.81;100.00;101892.56;5045956;28;45338;-74
2023/05/08 04:02:51;;;;;;;;;11.67;11.00;;;;;15.83;100.00;101896.16;5067201;28;45437;-73
2023/05/08 04:05:38;;;;;;;;;18.67;14.33;;;;;15.81;100.00;101885.47;5068662;28;46881;-75
2023/05/08 04:08:15;;;;;;;;;13.00;13.00;;;;;15.82;100.00;101891.69;5065164;28;45504;-73
2023/05/08 04:10:49;;;;;;;;;13.67;12.67;;;;;15.83;100.00;101893.50;5050266;28;45606;-75
2023/05/08 04:13:18;;;;;;;;;17.67;13.33;;;;;15.83;100.00;101891.72;5055017;28;45454;-74
2023/05/08 04:15:49;;;;;;;;;23.00;17.33;;;;;15.75;100.00;101873.91;5057245;28;47828;-74
2023/05/08 04:18:16;;;;;;;;;17.00;15.00;;;;;15.80;100.00;101883.69;5056104;28;45537;-75
2023/05/08 04:20:45;;;;;;;;;17.67;12.33;;;;;15.81;100.00;101887.25;5054726;28;45477;-75
2023/05/08 04:23:13;;;;;;;;;16.67;16.67;;;;;15.79;100.00;101878.38;5055085;28;45390;-75
2023/05/08 04:25:40;;;;;;;;;16.33;14.33;;;;;15.80;100.00;101890.78;5067701;28;45494;-74
2023/05/08 04:28:05;;;;;;;;;15.33;12.67;;;;;15.78;100.00;101882.81;5054904;28;66634;-73
2023/05/08 04:30:30;;;;;;;;;17.33;12.00;;;;;15.76;100.00;101887.22;5054855;28;62886;-74
2023/05/08 04:32:56;;;;;;;;;16.67;13.67;;;;;15.77;100.00;101882.81;5052729;28;57566;-74
2023/05/08 04:35:22;;;;;;;;;14.00;14.00;;;;;15.78;100.00;101881.91;5054223;28;46138;-73
2023/05/08 04:37:47;;;;;;;;;13.00;12.00;;;;;15.76;100.00;101883.66;5050836;28;45423;-74
2023/05/08 04:40:13;;;;;;;;;16.00;15.00;;;;;15.78;100.00;101882.81;5054945;28;45408;-74
2023/05/08 04:42:41;;;;;;;;;14.67;11.33;;;;;15.78;100.00;101881.91;5054381;28;57276;-74
2023/05/08 04:45:07;;;;;;;;;12.33;11.33;;;;;15.76;100.00;101884.53;5066180;28;45716;-75
2023/05/08 04:47:33;;;;;;;;;13.67;11.33;;;;;15.77;100.00;101881.03;5055031;28;45347;-76
2023/05/08 04:49:58;;;;;;;;;13.00;11.67;;;;;15.79;100.00;101881.03;5056249;28;62073;-74
2023/05/08 04:52:23;;;;;;;;;12.33;10.67;;;;;15.74;100.00;101873.00;5053418;28;52808;-74
2023/05/08 04:54:49;;;;;;;;;17.00;13.67;;;;;15.78;100.00;101881.91;5055452;28;55257;-74
2023/05/08 04:57:14;;;;;;;;;15.33;11.00;;;;;15.79;100.00;101884.56;5040963;28;46012;-73
2023/05/08 04:59:39;;;;;;;;;10.00;10.00;;;;;15.81;100.00;101892.56;5057239;28;45824;-74
2023/05/08 05:02:08;;;;;;;;;16.00;14.33;;;;;15.81;100.00;101892.56;5056486;28;55802;-73
2023/05/08 05:04:35;;;;;;;;;12.00;12.00;;;;;15.79;100.00;101897.91;5056880;28;46247;-74
2023/05/08 05:07:00;;;;;;;;;12.67;11.67;;;;;15.79;100.00;101899.66;5072608;28;45571;-74
2023/05/08 05:09:26;;;;;;;;;14.67;11.33;;;;;15.80;100.00;101901.44;5047671;28;45460;-74
2023/05/08 05:11:51;;;;;;;;;17.00;11.00;;;;;15.79;100.00;101908.53;5054419;28;57709;-73
2023/05/08 05:14:16;;;;;;;;;9.33;8.33;;;;;15.78;100.00;101917.41;5050880;28;62030;-74
2023/05/08 05:16:42;;;;;;;;;13.67;13.67;;;;;15.79;100.00;101918.31;5051321;28;48974;-74
2023/05/08 05:19:07;;;;;;;;;14.00;11.67;;;;;15.75;100.00;101916.50;5047729;28;57861;-74
2023/05/08 05:21:32;;;;;;;;;13.67;11.33;;;;;15.77;100.00;101920.09;5057044;28;59271;-74
2023/05/08 05:23:58;;;;;;;;;14.33;11.00;;;;;15.73;100.00;101926.25;5053850;28;45587;-73
2023/05/08 05:26:23;;;;;;;;;13.67;11.67;;;;;15.70;100.00;101928.00;5056532;28;45431;-74
2023/05/08 05:28:48;;;;;;;;;14.67;11.00;;;;;15.69;100.00;101933.31;5039256;28;45923;-74
2023/05/08 05:31:14;;;;;;;;;17.00;11.00;;;;;15.69;100.00;101942.19;5055746;28;56382;-74
2023/05/08 05:33:39;;;;;;;;;14.33;12.33;;;;;15.67;100.00;101948.41;5056628;28;68319;-75
2023/05/08 05:36:05;;;;;;;;;11.33;10.00;;;;;15.66;100.00;101938.66;5054623;28;66530;-74
2023/05/08 05:38:30;;;;;;;;;10.33;8.00;;;;;15.66;100.00;101943.97;5056124;28;45430;-75
2023/05/08 05:40:56;;;;;;;;;12.67;10.67;;;;;15.67;100.00;101941.31;5053422;28;45552;-74
2023/05/08 05:43:21;;;;;;;;;16.33;12.00;;;;;15.67;100.00;101937.75;5056575;28;46368;-73
2023/05/08 05:45:46;;;;;;;;;10.00;8.33;;;;;15.71;100.00;101939.53;5049328;28;46514;-75
2023/05/08 05:48:12;;;;;;;;;10.67;9.33;;;;;15.73;100.00;101939.56;5056668;28;45248;-74
2023/05/08 05:50:37;;;;;;;;;8.67;8.00;;;;;15.75;100.00;101952.00;5070552;28;61861;-74
2023/05/08 05:53:03;;;;;;;;;11.00;11.00;;;;;15.78;100.00;101946.72;5051108;28;45639;-74
2023/05/08 05:55:28;;;;;;;;;12.67;10.00;;;;;15.79;100.00;101950.28;5054746;28;45459;-74
2023/05/08 05:57:53;;;;;;;;;14.67;12.00;;;;;15.78;100.00;101949.38;5053468;28;45467;-74
2023/05/08 06:00:20;;;;;;;;;18.00;15.00;;;;;15.80;100.00;101954.72;5050048;28;45597;-74
2023/05/08 06:02:46;;;;;;;;;12.67;12.67;;;;;15.83;100.00;101965.41;5054690;28;48364;-74
2023/05/08 06:05:11;;;;;;;;;18.33;13.67;;;;;15.85;100.00;101969.84;5052947;28;45365;-74
2023/05/08 06:07:37;;;;;;;;;16.33;12.67;;;;;15.87;100.00;101969.84;5056138;28;45831;-75
2023/05/08 06:10:02;;;;;;;;;15.67;15.00;;;;;15.85;100.00;101976.94;5052251;28;45561;-74
2023/05/08 06:12:28;;;;;;;;;16.67;14.67;;;;;15.83;100.00;101976.94;5055083;28;47726;-74
2023/05/08 06:14:54;;;;;;;;;15.00;12.00;;;;;15.80;100.00;101965.38;5056131;28;45189;-75
2023/05/08 06:17:19;;;;;;;;;13.67;12.00;;;;;15.86;100.00;101976.06;5065732;28;45405;-74
2023/05/08 06:19:49;;;;;;;;;17.00;12.00;;;;;15.88;100.00;101974.31;5050768;28;45831;-74
2023/05/08 06:22:17;;;;;;;;;15.00;13.33;;;;;15.92;100.00;101966.31;5052033;28;45983;-74
2023/05/08 06:24:43;;;;;;;;;15.67;12.00;;;;;15.96;100.00;101976.13;5052479;28;45296;-74
2023/05/08 06:27:08;;;;;;;;;14.00;12.00;;;;;15.99;100.00;101980.59;5070308;28;45561;-74
2023/05/08 06:29:34;;;;;;;;;10.67;10.00;;;;;16.02;100.00;101983.28;5055976;28;45520;-74
2023/05/08 06:31:59;;;;;;;;;16.00;14.00;;;;;16.04;100.00;101981.53;5053652;28;69047;-73
2023/05/08 06:34:25;;;;;;;;;16.67;12.00;;;;;16.08;100.00;101987.75;5051503;28;45459;-74
2023/05/08 06:36:50;;;;;;;;;12.67;11.00;;;;;16.08;100.00;101975.31;5055234;28;60978;-75
2023/05/08 06:39:15;;;;;;;;;12.33;10.67;;;;;16.09;100.00;101979.78;5052891;28;58486;-74
2023/05/08 06:41:41;;;;;;;;;13.67;13.33;;;;;16.11;100.00;101972.69;5035559;28;47663;-74
2023/05/08 06:44:06;;;;;;;;;17.67;14.00;;;;;16.12;100.00;101981.56;5051421;28;59078;-73
2023/05/08 06:46:31;;;;;;;;;18.33;13.33;;;;;16.15;100.00;101982.50;5051025;28;57576;-74
2023/05/08 06:48:57;;;;;;;;;16.67;13.67;;;;;16.16;100.00;101986.94;5054486;28;49537;-73
2023/05/08 06:51:22;;;;;;;;;19.00;16.00;;;;;16.19;100.00;101978.97;5045606;28;69874;-74
2023/05/08 06:53:48;;;;;;;;;14.00;11.00;;;;;16.22;100.00;101986.09;5054354;28;45370;-74
2023/05/08 06:56:13;;;;;;;;;11.33;11.33;;;;;16.24;100.00;101987.88;5054534;28;62832;-74
2023/05/08 06:58:38;;;;;;;;;12.67;12.67;;;;;16.22;100.00;101983.41;5048750;28;56244;-74
2023/05/08 07:01:03;;;;;;;;;14.33;12.00;;;;;16.24;100.00;101981.63;5053022;28;66497;-74
2023/05/08 07:03:29;;;;;;;;;13.00;11.67;;;;;16.22;100.00;101986.97;5045733;28;54211;-73
2023/05/08 07:05:54;;;;;;;;;18.33;12.33;;;;;16.26;100.00;101987.88;5052541;28;55327;-74
2023/05/08 07:08:20;;;;;;;;;12.67;11.33;;;;;16.24;100.00;101984.31;5051977;28;52433;-75
2023/05/08 07:10:45;;;;;;;;;17.33;15.00;;;;;16.27;100.00;101994.09;5051590;28;45922;-73
2023/05/08 07:13:11;;;;;;;;;14.33;12.00;;;;;16.29;100.00;101995.00;5052563;28;63921;-73
2023/05/08 07:15:37;;;;;;;;;13.67;11.67;;;;;16.26;100.00;101998.56;5055295;28;64266;-75
2023/05/08 07:18:03;;;;;;;;;14.00;10.00;;;;;16.29;100.00;102005.66;5054161;28;46062;-75
2023/05/08 07:20:28;;;;;;;;;14.00;11.00;;;;;16.30;100.00;101999.44;5052002;28;46177;-73
2023/05/08 07:22:54;;;;;;;;;13.00;10.00;;;;;16.31;100.00;102007.47;5051663;28;45594;-73
2023/05/08 07:25:19;;;;;;;;;11.00;11.00;;;;;16.33;100.00;102005.69;5054416;28;45375;-72
2023/05/08 07:27:44;;;;;;;;;10.00;9.00;;;;;16.37;100.00;102012.84;5050466;28;45622;-73
2023/05/08 07:30:10;;;;;;;;;13.00;10.00;;;;;16.39;100.00;102008.38;5050733;28;46622;-72
2023/05/08 07:32:37;;;;;;;;;7.00;7.00;;;;;16.46;100.00;102001.34;5048670;28;45429;-73
2023/05/08 07:35:04;;;;;;;;;8.00;8.00;;;;;16.54;100.00;102006.69;5052233;28;45337;-73
2023/05/08 07:37:30;;;;;;;;;11.67;10.00;;;;;16.53;100.00;102005.81;5054036;28;45609;-73
2023/05/08 07:39:56;;;;;;;;;9.67;9.00;;;;;16.62;100.00;102013.88;5059952;28;46967;-73
2023/05/08 07:42:21;;;;;;;;;11.67;11.67;;;;;16.63;100.00;102012.09;5046540;28;45854;-73
2023/05/08 07:44:47;;;;;;;;;14.33;11.00;;;;;16.65;100.00;102018.31;5054401;28;45503;-73
2023/05/08 07:47:12;;;;;;;;;10.00;10.00;;;;;16.72;100.00;102006.81;5052826;28;59853;-74
2023/05/08 07:49:38;;;;;;;;;10.00;9.67;;;;;16.75;100.00;102002.38;5053793;28;62510;-72
2023/05/08 07:52:03;;;;;;;;;9.67;9.67;;;;;16.85;100.00;102010.44;5049337;28;45493;-73
2023/05/08 07:54:28;;;;;;;;;11.33;10.67;;;;;16.91;100.00;102022.03;5069727;28;45530;-73
2023/05/08 07:56:54;;;;;;;;;16.33;13.00;;;;;16.95;100.00;102020.25;5049252;28;45489;-74
2023/05/08 07:59:19;;;;;;;;;12.00;10.67;;;;;16.98;100.00;102025.59;5049463;28;46583;-72
2023/05/08 08:01:46;;;;;;;;;11.33;10.67;;;;;16.98;100.00;102028.25;5070412;28;67827;-73
2023/05/08 08:04:13;;;;;;;;;15.33;10.67;;;;;16.97;100.00;102032.72;5053750;28;45368;-72
2023/05/08 08:06:38;;;;;;;;;11.33;11.33;;;;;16.98;100.00;102030.94;5050494;28;45616;-72
2023/05/08 08:09:04;;;;;;;;;12.00;12.00;;;;;16.98;100.00;102028.25;5044769;28;46268;-73
2023/05/08 08:11:29;;;;;;;;;12.33;11.33;;;;;16.96;100.00;102035.38;5050116;28;61683;-72
2023/05/08 08:13:54;;;;;;;;;13.00;13.00;;;;;17.00;100.00;102037.19;5053894;28;45407;-73
2023/05/08 08:16:20;;;;;;;;;11.00;10.00;;;;;17.02;100.00;102038.97;5054857;28;45501;-73
2023/05/08 08:18:45;;;;;;;;;14.33;13.33;;;;;17.08;100.00;102032.75;5048345;28;57034;-74
2023/05/08 08:21:11;;;;;;;;;12.00;11.33;;;;;17.14;100.00;102029.22;5053066;28;45469;-73
2023/05/08 08:23:36;;;;;;;;;12.00;11.00;;;;;17.18;100.00;102031.00;5041746;28;45469;-73
2023/05/08 08:26:01;;;;;;;;;15.00;13.00;;;;;17.23;100.00;102030.13;5037893;28;45593;-76
2023/05/08 08:28:27;;;;;;;;;14.00;12.00;;;;;17.28;100.00;102040.81;5040018;28;64211;-76
2023/05/08 08:30:52;;;;;;;;;16.00;10.67;;;;;17.31;100.00;102031.91;5044547;28;45531;-72
2023/05/08 08:33:17;;;;;;;;;16.33;12.00;;;;;17.37;100.00;102027.50;5041958;28;61505;-73
2023/05/08 08:35:43;;;;;;;;;15.67;13.00;;;;;17.39;100.00;102027.50;5043117;28;57436;-74
2023/05/08 08:38:08;;;;;;;;;15.33;13.00;;;;;17.46;100.00;102035.50;5039059;28;45685;-78
2023/05/08 08:40:40;;;;;;;;;11.67;11.67;;;;;17.53;100.00;102036.44;5041130;28;52555;-75
2023/05/08 08:43:06;;;;;;;;;14.33;14.33;;;;;17.61;100.00;102033.75;5038189;28;45395;-78
2023/05/08 08:45:32;;;;;;;;;13.67;12.00;;;;;17.69;100.00;102032.00;5040381;28;45555;-74
2023/05/08 08:48:00;;;;;;;;;10.00;10.00;;;;;17.74;100.00;102035.59;5039946;28;45519;-76
2023/05/08 08:50:29;;;;;;;;;13.67;13.00;;;;;17.78;100.00;102035.59;5062128;28;45551;-73
2023/05/08 08:53:16;;;;;;;;;14.00;12.00;;;;;17.79;100.00;102048.06;5036723;28;45425;-78
2023/05/08 08:55:45;;;;;;;;;15.00;10.67;;;;;17.78;100.00;102040.94;5028335;28;45528;-75
2023/05/08 08:58:13;;;;;;;;;12.67;11.00;;;;;17.78;100.00;102048.94;5042297;28;46493;-75
2023/05/08 09:00:39;;;;;;;;;12.00;11.33;;;;;17.72;100.00;102043.59;5042727;28;45220;-77
2023/05/08 09:03:06;;;;;;;;;11.67;11.67;;;;;17.68;100.00;102039.09;5041851;28;58917;-76
2023/05/08 09:05:32;;;;;;;;;13.00;11.00;;;;;17.66;100.00;102048.00;5053116;28;45482;-76
2023/05/08 09:07:58;;;;;;;;;9.33;9.00;;;;;17.61;100.00;102045.34;5037625;28;46350;-79
2023/05/08 09:10:24;;;;;;;;;9.67;9.67;;;;;17.61;100.00;102044.44;5043892;28;45458;-78
2023/05/08 09:12:49;;;;;;;;;11.33;9.67;;;;;17.58;100.00;102050.69;5038470;28;45320;-77
2023/05/08 09:15:15;;;;;;;;;12.67;9.67;;;;;17.57;100.00;102056.91;5059106;28;45450;-76
2023/05/08 09:17:40;;;;;;;;;11.00;8.00;;;;;17.58;100.00;102055.09;5021109;28;48166;-78
2023/05/08 09:20:06;;;;;;;;;11.00;9.00;;;;;17.55;100.00;102051.56;5029933;28;54366;-76
2023/05/08 09:22:35;;;;;;;;;11.67;10.00;;;;;17.54;100.00;102047.13;5039092;28;45241;-74
2023/05/08 09:25:02;;;;;;;;;9.33;9.33;;;;;17.57;100.00;102051.56;5050965;28;45312;-73
2023/05/08 09:27:28;;;;;;;;;14.67;12.33;;;;;17.62;100.00;102046.22;5049830;28;45844;-75
2023/05/08 09:30:15;;;;;;;;;9.33;7.67;;;;;17.69;100.00;102050.72;5179767;22;46863;-73
2023/05/08 09:32:42;;;;;;;;;13.00;11.33;;;;;17.76;100.00;102045.38;5047169;28;46346;-73
2023/05/08 09:35:09;;;;;;;;;13.67;8.00;;;;;17.89;100.00;102040.03;5040828;28;45798;-74
2023/05/08 09:37:39;;;;;;;;;11.00;8.00;;;;;18.01;100.00;102037.41;5060728;28;46654;-74
2023/05/08 09:40:21;;;;;;;;;11.33;11.33;;;;;18.05;100.00;102029.34;5050140;28;45526;-73
2023/05/08 09:42:47;;;;;;;;;10.00;8.33;;;;;18.08;100.00;102030.25;5052538;28;45379;-73
2023/05/08 09:45:29;;;;;;;;;8.67;8.67;;;;;18.05;100.00;102020.44;5057450;28;45571;-74
2023/05/08 09:47:55;;;;;;;;;10.67;10.00;;;;;18.06;100.00;102023.13;5054373;28;45689;-72
2023/05/08 09:50:20;;;;;;;;;10.33;8.00;;;;;18.12;100.00;102018.69;5055806;28;45403;-72
2023/05/08 09:52:47;;;;;;;;;11.00;10.00;;;;;18.14;100.00;102015.09;5048142;28;45429;-74
2023/05/08 09:55:13;;;;;;;;;12.67;10.33;;;;;18.18;100.00;102013.31;5072674;28;45441;-74
2023/05/08 09:57:51;;;;;;;;;8.00;8.00;;;;;18.17;100.00;102009.75;5049999;28;46420;-73
2023/05/08 10:00:16;;;;;;;;;13.33;9.67;;;;;18.19;100.00;102010.63;5050060;28;45547;-73
2023/05/08 10:03:11;;;;;;;;;10.00;8.00;;;;;18.20;100.00;102000.81;5052377;28;45193;-73
2023/05/08 10:05:37;;;;;;;;;9.33;9.00;;;;;18.20;100.00;102001.72;5056151;28;45467;-73
2023/05/08 10:08:20;;;;;;;;;12.00;9.00;;;;;18.23;100.00;101993.69;5050968;28;46083;-72
2023/05/08 10:10:46;;;;;;;;;8.00;7.00;;;;;18.26;100.00;101991.00;5051538;28;45545;-75
2023/05/08 10:13:11;;;;;;;;;10.00;8.00;;;;;18.31;100.00;101988.31;5049390;28;45551;-73
2023/05/08 10:15:37;;;;;;;;;7.67;6.00;;;;;18.37;100.00;101985.63;5055072;28;45592;-74
2023/05/08 10:18:07;;;;;;;;;12.33;8.00;;;;;18.43;100.00;101984.72;5046741;28;47480;-72
2023/05/08 10:20:35;;;;;;;;;8.33;8.33;;;;;18.49;100.00;101979.38;5047939;28;45641;-75
2023/05/08 10:23:02;;;;;;;;;9.00;6.67;;;;;18.56;100.00;101979.34;5050529;28;45376;-73
2023/05/08 10:25:32;;;;;;;;;11.67;9.33;;;;;18.62;100.00;101975.75;5050805;28;45968;-74
2023/05/08 10:28:22;;;;;;;;;6.67;5.67;;;;;18.79;100.00;101973.03;5049181;28;45778;-73
2023/05/08 10:30:48;;;;;;;;;10.33;10.00;;;;;18.97;100.00;101969.38;5051001;28;45623;-74
2023/05/08 10:33:16;;;;;;;;;8.00;8.00;;;;;19.17;100.00;101962.09;5047287;28;45526;-74
2023/05/08 10:35:42;;;;;;;;;11.33;9.00;;;;;19.34;100.00;101962.91;5070181;28;45334;-73
2023/05/08 10:38:08;;;;;;;;;8.33;8.33;;;;;19.54;100.00;101965.41;5054428;28;58716;-73
2023/05/08 10:40:33;;;;;;;;;7.00;7.00;;;;;19.73;100.00;101957.25;5055104;28;45546;-73
2023/05/08 10:42:59;;;;;;;;;9.67;7.00;;;;;19.91;100.00;101957.06;5053823;28;45426;-73
2023/05/08 10:45:25;;;;;;;;;11.67;6.33;;;;;20.03;100.00;101967.69;5056256;28;45512;-73
2023/05/08 10:48:33;;;;;;;;;9.67;7.33;;;;;20.14;100.00;101952.38;5055907;28;65949;-73
2023/05/08 10:51:10;;;;;;;;;8.00;7.67;;;;;20.22;100.00;101954.97;5020264;28;45736;-73
2023/05/08 10:53:43;;;;;;;;;10.00;7.00;;;;;20.28;100.00;101962.94;5055615;28;45544;-73
2023/05/08 10:56:09;;;;;;;;;10.00;6.33;;;;;20.32;100.00;101961.13;5052454;28;45181;-76
2023/05/08 10:58:37;;;;;;;;;7.67;6.00;;;;;20.35;100.00;101950.38;5045496;28;47741;-73
2023/05/08 11:01:06;;;;;;;;;9.67;7.00;;;;;20.38;100.00;101939.59;5069432;28;45669;-73
2023/05/08 11:03:42;;;;;;;;;11.00;8.67;;;;;20.43;100.00;101943.09;5051481;28;45516;-74
2023/05/08 11:06:08;;;;;;;;;7.00;7.00;;;;;20.48;100.00;101938.59;5047390;28;45256;-73
2023/05/08 11:08:45;;;;;;;;;7.00;7.00;;;;;20.54;100.00;101933.16;5049458;28;46586;-73